Pagina principale
METAR-TAF:

METAR-TAF

Aeroporti :

Ancona, Italia

latitudine: 43-37N, longitudine: 013-22E, altezza: 12 m

Osservazione

Il bollettino è stato emesso 1 ora e 22 minuti fa, alle 00:50 UTC
Vento 5 kt da sud-ovest
Temperature 18°C
Umidità 83%
Pressione 1013 hPa
Visibilità 10 km o più

METAR: LIPY 160050Z AUTO 23005KT 9999 SCT087/// SCT100/// 18/15 Q1013

Ora: 04:12 (02:12 UTC)

Previsione

Il bollettino è stato emesso 3 ore e 12 minuti fa, alle 23:00 UTC
Previsione valida dal 16 alle 00 UTC al 16 alle 24 UTC
Vento 5 kt da direzioni variabili
Visibilità 10 km o più
Nubi sparse ad un'altezza di 2000 ft
Evoluzione graduale
dal 16 alle 04 UTC al 16 alle 06 UTC
Vento 10 kt da sud-ovest
Evoluzione graduale
dal 16 alle 10 UTC al 16 alle 12 UTC
Vento 10 kt da nord
Evoluzione graduale
dal 16 alle 17 UTC al 16 alle 19 UTC
Vento 10 kt da sud-ovest

TAF: LIPY 152300Z 1600/1624 VRB05KT 9999 SCT020 BECMG 1604/1606 23010KT BECMG 1610/1612 01010KT BECMG 1617/1619 23010KT

Osservazioni e previsioni meteorologiche di più di 4000 aeroporti (messaggi METAR e TAF).

Le stazioni disponibili sono rappresentate dai dischi gialli e rossi sulla carta.

Puntare il mouse per vedere il nome della stazione.

Clicca sopra per visualizzare le osservazioni e previsioni meteorologiche.

Per cambiare la mappa : fare clic sui pulsanti verdi con una croce nera per ingrandire, il pulsante verde con un trattino per diminuire, o sulla freccia verde per le mappe adiacenti.


METAR-TAF: